createdAt,value
2023-07-24T00:00:26.396Z,17.20
2023-07-24T00:01:26.416Z,18.50
2023-07-24T00:02:26.381Z,19.10
2023-07-24T00:03:26.397Z,16.80
2023-07-24T00:04:26.333Z,17.40
2023-07-24T00:05:26.331Z,14.90
2023-07-24T00:06:26.305Z,17.90
2023-07-24T00:07:26.336Z,17.90
2023-07-24T00:08:26.322Z,17.50
2023-07-24T00:09:26.265Z,19.50
2023-07-24T00:10:26.252Z,15.90
2023-07-24T00:11:26.246Z,18.50
2023-07-24T00:12:26.245Z,19.20
2023-07-24T00:13:26.248Z,20.60
2023-07-24T00:14:26.202Z,22.00
2023-07-24T00:15:26.182Z,20.40
2023-07-24T00:16:26.236Z,17.20
2023-07-24T00:17:26.257Z,17.70
2023-07-24T00:18:26.210Z,24.30
2023-07-24T00:19:26.129Z,19.40
2023-07-24T00:20:26.153Z,16.40
2023-07-24T00:21:26.112Z,16.50
2023-07-24T00:22:26.110Z,17.30
2023-07-24T00:23:26.134Z,16.90
2023-07-24T00:24:26.103Z,17.50
2023-07-24T00:25:26.046Z,15.30
2023-07-24T00:26:26.051Z,16.80
2023-07-24T00:27:26.041Z,17.50
2023-07-24T00:28:25.999Z,17.90
2023-07-24T00:29:25.998Z,18.00
2023-07-24T00:30:25.985Z,17.00
2023-07-24T00:31:26.082Z,18.30
2023-07-24T00:32:25.979Z,20.00
2023-07-24T00:33:25.935Z,13.40
2023-07-24T00:34:29.293Z,14.20
2023-07-24T00:35:25.912Z,17.20
2023-07-24T00:36:25.950Z,14.20
2023-07-24T00:37:25.893Z,19.10
2023-07-24T00:38:25.879Z,20.50
2023-07-24T00:39:25.852Z,14.90
2023-07-24T00:40:25.863Z,15.80
2023-07-24T00:41:25.845Z,14.70
2023-07-24T00:42:25.823Z,16.20
2023-07-24T00:43:25.817Z,19.70
2023-07-24T00:44:25.785Z,15.00
2023-07-24T00:45:25.803Z,19.10
2023-07-24T00:46:25.818Z,16.90
2023-07-24T00:47:25.774Z,19.20
2023-07-24T00:48:25.731Z,20.20
2023-07-24T00:49:25.726Z,21.60
2023-07-24T00:50:25.714Z,15.80
2023-07-24T00:51:25.696Z,20.90
2023-07-24T00:52:25.681Z,19.90
2023-07-24T00:53:25.678Z,15.80
2023-07-24T00:54:25.682Z,18.90
2023-07-24T00:55:25.669Z,17.80
2023-07-24T00:56:25.685Z,16.30
2023-07-24T00:57:25.622Z,15.40
2023-07-24T00:58:25.612Z,13.00
2023-07-24T00:59:25.633Z,16.90
2023-07-24T01:00:25.643Z,15.90
2023-07-24T01:01:25.572Z,17.30
2023-07-24T01:02:25.564Z,14.50
2023-07-24T01:03:25.553Z,18.20
2023-07-24T01:04:25.530Z,17.30
2023-07-24T01:05:25.522Z,12.20
2023-07-24T01:06:25.510Z,16.80
2023-07-24T01:07:25.488Z,12.80
2023-07-24T01:08:25.488Z,16.90
2023-07-24T01:09:25.453Z,12.10
2023-07-24T01:10:25.443Z,13.70
2023-07-24T01:11:25.420Z,16.20
2023-07-24T01:12:25.411Z,14.00
2023-07-24T01:13:25.426Z,12.60
2023-07-24T01:14:25.382Z,15.70
2023-07-24T01:15:25.376Z,17.50
2023-07-24T01:16:25.359Z,14.90
2023-07-24T01:17:25.402Z,15.80
2023-07-24T01:18:25.342Z,14.10
2023-07-24T01:19:25.327Z,20.40
2023-07-24T01:20:25.310Z,16.70
2023-07-24T01:21:25.288Z,15.40
2023-07-24T01:22:25.327Z,19.30
2023-07-24T01:23:25.262Z,18.90
2023-07-24T01:24:25.301Z,15.40
2023-07-24T01:25:25.239Z,17.50
2023-07-24T01:26:25.325Z,17.80
2023-07-24T01:27:25.228Z,19.30
2023-07-24T01:28:25.197Z,19.00
2023-07-24T01:29:25.176Z,18.40
2023-07-24T01:30:25.209Z,23.90
2023-07-24T01:31:25.178Z,16.70
2023-07-24T01:32:25.173Z,17.60
2023-07-24T01:33:25.139Z,18.20
2023-07-24T01:34:25.112Z,15.10
2023-07-24T01:35:25.108Z,13.90
2023-07-24T01:36:25.108Z,16.30
2023-07-24T01:37:25.069Z,11.80
2023-07-24T01:38:25.060Z,16.40
2023-07-24T01:39:25.064Z,13.90
2023-07-24T01:40:25.024Z,14.00
2023-07-24T01:41:25.037Z,17.70
2023-07-24T01:42:25.002Z,16.50
2023-07-24T01:43:24.989Z,13.90
2023-07-24T01:44:24.985Z,14.90
2023-07-24T01:45:24.981Z,17.90
2023-07-24T01:46:25.016Z,15.20
2023-07-24T01:47:24.992Z,16.10
2023-07-24T01:48:24.931Z,18.80
2023-07-24T01:49:24.922Z,15.50
2023-07-24T01:50:24.918Z,15.00
2023-07-24T01:51:24.887Z,14.30
2023-07-24T01:52:24.869Z,16.70
2023-07-24T01:53:24.872Z,18.10
2023-07-24T01:54:24.862Z,13.90
2023-07-24T01:55:24.870Z,13.60
2023-07-24T01:56:24.820Z,15.90
2023-07-24T01:57:24.800Z,16.30
2023-07-24T01:58:24.805Z,16.20
2023-07-24T01:59:24.795Z,17.80
2023-07-24T02:00:24.766Z,17.40
2023-07-24T02:01:24.765Z,17.30
2023-07-24T02:02:24.751Z,16.90
2023-07-24T02:03:24.855Z,13.80
2023-07-24T02:04:24.749Z,16.70
2023-07-24T02:05:24.704Z,20.30
2023-07-24T02:06:24.683Z,19.80
2023-07-24T02:07:24.688Z,16.30
2023-07-24T02:08:24.669Z,16.00
2023-07-24T02:09:24.664Z,20.60
2023-07-24T02:10:24.639Z,16.20
2023-07-24T02:11:24.645Z,16.50
2023-07-24T02:12:24.607Z,15.90
2023-07-24T02:13:24.615Z,19.10
2023-07-24T02:14:24.591Z,15.10
2023-07-24T02:15:24.572Z,13.70
2023-07-24T02:16:24.619Z,19.30
2023-07-24T02:17:24.583Z,16.30
2023-07-24T02:18:24.534Z,17.70
2023-07-24T02:19:24.518Z,18.40
2023-07-24T02:20:24.492Z,16.30
2023-07-24T02:21:24.497Z,15.40
2023-07-24T02:22:24.477Z,13.60
2023-07-24T02:23:24.476Z,16.70
2023-07-24T02:24:24.487Z,17.20
2023-07-24T02:25:24.436Z,17.30
2023-07-24T02:26:24.418Z,15.10
2023-07-24T02:27:24.424Z,16.50
2023-07-24T02:28:24.379Z,16.90
2023-07-24T02:29:24.380Z,14.20
2023-07-24T02:30:24.371Z,14.90
2023-07-24T02:31:24.386Z,14.60
2023-07-24T02:32:24.377Z,18.90
2023-07-24T02:33:24.321Z,15.00
2023-07-24T02:34:24.318Z,13.80
2023-07-24T02:35:24.303Z,19.70
2023-07-24T02:36:24.291Z,17.10
2023-07-24T02:37:24.295Z,15.50
2023-07-24T02:38:24.260Z,18.60
2023-07-24T02:39:24.243Z,14.90
2023-07-24T02:40:24.237Z,14.80
2023-07-24T02:41:24.240Z,15.80
2023-07-24T02:42:24.207Z,16.00
2023-07-24T02:43:24.195Z,13.70
2023-07-24T02:44:24.177Z,17.10
2023-07-24T02:45:24.185Z,15.50
2023-07-24T02:46:24.222Z,16.70
2023-07-24T02:47:24.227Z,16.30
2023-07-24T02:48:24.123Z,18.30
2023-07-24T02:49:24.108Z,14.30
2023-07-24T02:50:24.118Z,19.90
2023-07-24T02:51:24.082Z,18.40
2023-07-24T02:52:24.081Z,25.20
2023-07-24T02:53:24.068Z,24.40
2023-07-24T02:54:24.043Z,31.40
2023-07-24T02:55:24.048Z,34.30
2023-07-24T02:56:24.018Z,27.90
2023-07-24T02:57:24.009Z,35.60
2023-07-24T02:58:24.001Z,30.00
2023-07-24T02:59:23.999Z,31.00
2023-07-24T03:00:23.971Z,31.00
2023-07-24T03:01:23.983Z,29.10
2023-07-24T03:02:24.020Z,32.60
2023-07-24T03:03:24.008Z,28.40
2023-07-24T03:04:23.917Z,29.10
2023-07-24T03:05:23.915Z,29.80
2023-07-24T03:06:23.879Z,32.20
2023-07-24T03:07:23.860Z,30.60
2023-07-24T03:08:23.844Z,32.30
2023-07-24T03:09:23.865Z,26.40
2023-07-24T03:10:23.816Z,28.80
2023-07-24T03:11:23.806Z,27.60
2023-07-24T03:12:23.793Z,28.60
2023-07-24T03:13:23.823Z,28.90
2023-07-24T03:14:23.778Z,26.40
2023-07-24T03:15:23.777Z,24.80
2023-07-24T03:16:23.728Z,24.70
2023-07-24T03:17:23.772Z,26.40
2023-07-24T03:18:23.731Z,30.60
2023-07-24T03:19:23.717Z,28.80
2023-07-24T03:20:23.693Z,33.10
2023-07-24T03:21:23.676Z,26.30
2023-07-24T03:22:23.660Z,25.80
2023-07-24T03:23:23.670Z,23.80
2023-07-24T03:24:23.666Z,25.20
2023-07-24T03:25:23.645Z,22.80
2023-07-24T03:26:23.603Z,21.00
2023-07-24T03:27:23.612Z,27.20
2023-07-24T03:28:23.592Z,21.70
2023-07-24T03:29:23.588Z,25.90
2023-07-24T03:30:23.586Z,24.00
2023-07-24T03:31:23.632Z,27.60
2023-07-24T03:32:23.564Z,27.00
2023-07-24T03:33:23.526Z,26.70
2023-07-24T03:34:23.492Z,22.60
2023-07-24T03:35:23.506Z,29.50
2023-07-24T03:36:24.767Z,19.80
2023-07-24T03:37:23.484Z,25.40
2023-07-24T03:38:23.453Z,24.50
2023-07-24T03:39:23.423Z,24.00
2023-07-24T03:40:23.441Z,24.30
2023-07-24T03:41:23.445Z,25.90
2023-07-24T03:42:23.407Z,19.00
2023-07-24T03:43:23.374Z,18.80
2023-07-24T03:44:23.403Z,21.70
2023-07-24T03:45:23.332Z,24.00
2023-07-24T03:46:23.392Z,21.00
2023-07-24T03:47:23.321Z,24.20
2023-07-24T03:48:23.303Z,20.90
2023-07-24T03:49:23.299Z,20.50
2023-07-24T03:50:23.281Z,20.80
2023-07-24T03:51:23.386Z,25.40
2023-07-24T03:52:23.244Z,23.70
2023-07-24T03:53:23.269Z,21.90
2023-07-24T03:54:23.226Z,21.50
2023-07-24T03:55:23.261Z,22.10
2023-07-24T03:56:23.225Z,24.90
2023-07-24T03:57:23.190Z,23.00
2023-07-24T03:58:23.176Z,27.90
2023-07-24T03:59:23.149Z,19.40
2023-07-24T04:00:23.154Z,23.00
2023-07-24T04:01:23.143Z,24.20
2023-07-24T04:02:23.176Z,26.90
2023-07-24T04:03:23.137Z,22.70
2023-07-24T04:04:23.102Z,21.80
2023-07-24T04:05:23.085Z,21.90
2023-07-24T04:06:23.078Z,26.60
2023-07-24T04:07:23.041Z,25.10
2023-07-24T04:08:23.044Z,21.90
2023-07-24T04:09:23.027Z,21.60
2023-07-24T04:10:23.035Z,24.90
2023-07-24T04:11:22.991Z,26.00
2023-07-24T04:12:23.002Z,22.20
2023-07-24T04:13:22.960Z,20.90
2023-07-24T04:14:22.972Z,18.10
2023-07-24T04:15:22.937Z,16.80
2023-07-24T04:16:22.955Z,24.10
2023-07-24T04:17:22.962Z,24.80
2023-07-24T04:18:22.910Z,23.70
2023-07-24T04:19:22.906Z,16.80
2023-07-24T04:20:22.897Z,18.40
2023-07-24T04:21:22.899Z,23.40
2023-07-24T04:22:22.848Z,17.00
2023-07-24T04:23:22.856Z,18.20
2023-07-24T04:24:22.851Z,17.20
2023-07-24T04:25:22.806Z,19.70
2023-07-24T04:26:22.791Z,16.40
2023-07-24T04:27:22.797Z,20.40
2023-07-24T04:28:22.798Z,17.80
2023-07-24T04:29:22.745Z,19.50
2023-07-24T04:30:22.745Z,17.80
2023-07-24T04:31:22.789Z,21.00
2023-07-24T04:32:22.861Z,22.30
2023-07-24T04:33:22.889Z,18.60
2023-07-24T04:34:22.725Z,18.10
2023-07-24T04:35:22.675Z,21.30
2023-07-24T04:36:22.667Z,15.70
2023-07-24T04:37:22.657Z,16.80
2023-07-24T04:38:22.643Z,20.80
2023-07-24T04:39:22.633Z,16.10
2023-07-24T04:40:22.617Z,16.10
2023-07-24T04:41:22.612Z,18.10
2023-07-24T04:42:22.603Z,21.90
2023-07-24T04:43:22.555Z,18.60
2023-07-24T04:44:22.547Z,16.50
2023-07-24T04:45:24.163Z,26.70
2023-07-24T04:46:22.558Z,22.40
2023-07-24T04:47:22.527Z,19.50
2023-07-24T04:48:22.692Z,17.10
2023-07-24T04:49:22.474Z,22.30
2023-07-24T04:50:22.473Z,25.30
2023-07-24T04:51:22.460Z,20.60
2023-07-24T04:52:22.443Z,22.10
2023-07-24T04:53:22.428Z,29.00
2023-07-24T04:54:22.419Z,28.30
2023-07-24T04:55:22.409Z,28.60
2023-07-24T04:56:22.408Z,25.40
2023-07-24T04:57:22.376Z,26.40
2023-07-24T04:58:22.363Z,21.60
2023-07-24T04:59:22.334Z,22.60
2023-07-24T05:00:22.361Z,19.40
2023-07-24T05:01:22.336Z,23.90
2023-07-24T05:02:22.309Z,21.10
2023-07-24T05:03:22.286Z,18.70
2023-07-24T05:04:22.310Z,21.30
2023-07-24T05:05:22.274Z,20.70
2023-07-24T05:06:22.254Z,18.50
2023-07-24T05:07:22.220Z,20.50
2023-07-24T05:08:22.240Z,24.20
2023-07-24T05:09:22.231Z,19.60
2023-07-24T05:10:22.254Z,17.40
2023-07-24T05:11:22.186Z,18.40
2023-07-24T05:12:22.201Z,16.30
2023-07-24T05:13:22.150Z,22.50
2023-07-24T05:14:22.158Z,24.10
2023-07-24T05:15:22.130Z,21.80
2023-07-24T05:16:22.125Z,29.10
2023-07-24T05:17:22.132Z,22.70
2023-07-24T05:18:22.113Z,26.60
2023-07-24T05:19:22.091Z,18.50
2023-07-24T05:20:22.083Z,27.40
2023-07-24T05:21:22.042Z,26.00
2023-07-24T05:22:22.037Z,27.80
2023-07-24T05:23:22.032Z,25.30
2023-07-24T05:24:22.044Z,23.60
2023-07-24T05:25:21.979Z,34.80
2023-07-24T05:26:21.982Z,30.50
2023-07-24T05:27:21.966Z,31.70
2023-07-24T05:28:21.960Z,29.40
2023-07-24T05:29:21.944Z,41.50
2023-07-24T05:30:21.929Z,28.20
2023-07-24T05:31:21.942Z,30.00
2023-07-24T05:32:21.945Z,32.80
2023-07-24T05:33:21.900Z,29.00
2023-07-24T05:34:21.872Z,29.30
2023-07-24T05:35:21.849Z,26.10
2023-07-24T05:36:21.853Z,28.60
2023-07-24T05:37:21.864Z,28.50
2023-07-24T05:38:21.820Z,28.60
2023-07-24T05:39:21.830Z,23.40
2023-07-24T05:40:21.874Z,22.50
2023-07-24T05:41:21.774Z,25.90
2023-07-24T05:42:21.806Z,31.40
2023-07-24T05:43:21.747Z,23.90
2023-07-24T05:44:21.740Z,26.70
2023-07-24T05:45:21.717Z,27.30
2023-07-24T05:46:21.729Z,24.60
2023-07-24T05:47:21.746Z,26.60
2023-07-24T05:48:21.678Z,25.10
2023-07-24T05:49:21.652Z,21.90
2023-07-24T05:50:21.655Z,24.30
2023-07-24T05:51:21.659Z,22.20
2023-07-24T05:52:21.630Z,18.00
2023-07-24T05:53:21.614Z,22.50
2023-07-24T05:54:21.604Z,23.40
2023-07-24T05:55:21.606Z,17.50
2023-07-24T05:56:21.643Z,22.40
2023-07-24T05:57:21.550Z,19.90
2023-07-24T05:58:21.539Z,20.60
2023-07-24T05:59:21.522Z,17.40
2023-07-24T06:00:21.565Z,20.10
2023-07-24T06:01:21.556Z,18.10
2023-07-24T06:02:21.492Z,18.90
2023-07-24T06:03:21.510Z,18.60
2023-07-24T06:04:21.549Z,19.70
2023-07-24T06:05:21.469Z,13.30
2023-07-24T06:06:21.437Z,15.30
2023-07-24T06:07:21.407Z,13.90
2023-07-24T06:08:21.411Z,15.20
2023-07-24T06:09:22.293Z,17.20
2023-07-24T06:10:21.426Z,17.40
2023-07-24T06:11:21.381Z,16.60
2023-07-24T06:12:21.354Z,14.60
2023-07-24T06:13:21.353Z,11.60
2023-07-24T06:14:21.331Z,14.80
2023-07-24T06:15:21.312Z,13.80
2023-07-24T06:16:21.334Z,17.10
2023-07-24T06:17:21.305Z,14.10
2023-07-24T06:18:21.290Z,10.80
2023-07-24T06:19:21.261Z,14.20
2023-07-24T06:20:21.252Z,14.30
2023-07-24T06:21:21.237Z,12.40
2023-07-24T06:22:21.248Z,13.70
2023-07-24T06:23:21.217Z,10.60
2023-07-24T06:24:21.230Z,8.40
2023-07-24T06:25:21.166Z,9.00
2023-07-24T06:26:21.169Z,10.10
2023-07-24T06:27:21.182Z,11.90
2023-07-24T06:28:21.157Z,7.90
2023-07-24T06:29:21.118Z,10.40
2023-07-24T06:30:21.104Z,7.50
2023-07-24T06:31:21.124Z,7.60
2023-07-24T06:32:21.079Z,7.70
2023-07-24T06:33:21.079Z,9.30
2023-07-24T06:34:21.054Z,9.10
2023-07-24T06:35:21.044Z,9.90
2023-07-24T06:36:21.028Z,12.10
2023-07-24T06:37:23.197Z,9.50
2023-07-24T06:38:21.009Z,6.30
2023-07-24T06:39:20.987Z,11.00
2023-07-24T06:40:20.969Z,8.10
2023-07-24T06:41:20.961Z,11.10
2023-07-24T06:42:20.965Z,6.60
2023-07-24T06:43:20.936Z,6.10
2023-07-24T06:44:20.923Z,8.90
2023-07-24T06:45:20.935Z,10.80
2023-07-24T06:46:20.928Z,8.30
2023-07-24T06:47:20.926Z,9.00
2023-07-24T06:48:20.865Z,7.50
2023-07-24T06:49:20.850Z,6.20
2023-07-24T06:50:20.843Z,8.70
2023-07-24T06:51:20.853Z,8.50
2023-07-24T06:52:20.826Z,7.90
2023-07-24T06:53:20.800Z,7.60
2023-07-24T06:54:20.793Z,6.30
2023-07-24T06:55:20.764Z,8.90
2023-07-24T06:56:20.779Z,8.00
2023-07-24T06:57:20.764Z,8.50
2023-07-24T06:58:20.747Z,7.10
2023-07-24T06:59:20.714Z,7.00
2023-07-24T07:00:20.732Z,6.40
2023-07-24T07:01:20.726Z,7.90
2023-07-24T07:02:20.680Z,7.10
2023-07-24T07:03:20.676Z,6.80
2023-07-24T07:04:20.648Z,6.90
2023-07-24T07:05:20.656Z,7.00
2023-07-24T07:07:20.605Z,8.70
2023-07-24T07:08:20.611Z,4.80
2023-07-24T07:09:20.576Z,7.70
2023-07-24T07:10:20.591Z,6.10
2023-07-24T07:11:20.563Z,6.10
2023-07-24T07:12:22.431Z,5.40
2023-07-24T07:13:20.528Z,8.00
2023-07-24T07:14:20.665Z,8.30
2023-07-24T07:15:20.514Z,5.70
2023-07-24T07:16:20.583Z,6.00
2023-07-24T07:17:20.469Z,6.10
2023-07-24T07:18:20.462Z,4.20
2023-07-24T07:19:20.467Z,5.00
2023-07-24T07:20:20.444Z,5.20
2023-07-24T07:21:20.418Z,6.50
2023-07-24T07:22:20.402Z,6.50
2023-07-24T07:23:20.392Z,6.70
2023-07-24T07:24:20.404Z,5.80
2023-07-24T07:25:20.366Z,6.90
2023-07-24T07:26:20.358Z,5.60
2023-07-24T07:27:20.344Z,5.80
2023-07-24T07:28:20.332Z,6.70
2023-07-24T07:29:20.326Z,4.80
2023-07-24T07:30:20.316Z,4.00
2023-07-24T07:31:20.329Z,6.70
2023-07-24T07:32:20.267Z,7.00
2023-07-24T07:33:20.258Z,4.20
2023-07-24T07:34:20.248Z,5.70
2023-07-24T07:35:20.238Z,7.30
2023-07-24T07:36:20.260Z,7.50
2023-07-24T07:37:20.197Z,4.90
2023-07-24T07:38:20.199Z,6.00
2023-07-24T07:39:20.172Z,4.20
2023-07-24T07:40:20.183Z,6.50
2023-07-24T07:41:20.153Z,4.50
2023-07-24T07:42:20.127Z,6.70
2023-07-24T07:43:20.112Z,8.00
2023-07-24T07:44:20.134Z,4.70
2023-07-24T07:45:20.093Z,7.10
2023-07-24T07:46:20.092Z,5.90
2023-07-24T07:47:20.059Z,7.70
2023-07-24T07:48:20.090Z,5.10
2023-07-24T07:49:20.049Z,5.70
2023-07-24T07:50:20.019Z,6.30
2023-07-24T07:51:20.030Z,5.00
2023-07-24T07:52:19.995Z,5.50
2023-07-24T07:53:19.976Z,5.30
2023-07-24T07:54:19.989Z,5.30
2023-07-24T07:55:19.976Z,6.80
2023-07-24T07:56:19.950Z,4.20
2023-07-24T07:57:19.939Z,6.10
2023-07-24T07:58:19.918Z,5.60
2023-07-24T07:59:19.919Z,3.90
2023-07-24T08:00:19.892Z,7.40
2023-07-24T08:01:19.907Z,4.40
2023-07-24T08:02:19.871Z,6.60
2023-07-24T08:03:19.912Z,6.50
2023-07-24T08:04:19.829Z,7.00
2023-07-24T08:05:21.667Z,6.10
2023-07-24T08:06:19.801Z,4.70
2023-07-24T08:07:19.797Z,4.10
2023-07-24T08:08:19.791Z,5.40
2023-07-24T08:09:19.792Z,4.60
2023-07-24T08:10:19.748Z,4.30
2023-07-24T08:11:19.737Z,6.40
2023-07-24T08:12:19.743Z,8.70
2023-07-24T08:13:19.746Z,4.90
2023-07-24T08:14:19.692Z,5.10
2023-07-24T08:15:19.685Z,4.60
2023-07-24T08:16:19.885Z,5.60
2023-07-24T08:17:19.754Z,5.20
2023-07-24T08:18:19.682Z,6.20
2023-07-24T08:19:19.655Z,5.00
2023-07-24T08:20:19.698Z,6.20
2023-07-24T08:21:19.606Z,6.90
2023-07-24T08:22:19.602Z,7.10
2023-07-24T08:23:19.573Z,4.10
2023-07-24T08:24:19.583Z,5.50
2023-07-24T08:25:19.544Z,4.30
2023-07-24T08:26:19.558Z,4.40
2023-07-24T08:27:19.533Z,5.40
2023-07-24T08:28:19.503Z,6.30
2023-07-24T08:29:19.502Z,4.70
2023-07-24T08:30:19.466Z,3.90
2023-07-24T08:31:19.533Z,4.90
2023-07-24T08:32:19.498Z,4.90
2023-07-24T08:33:19.435Z,5.30
2023-07-24T08:34:19.416Z,5.50
2023-07-24T08:35:19.413Z,4.00
2023-07-24T08:36:19.409Z,4.00
2023-07-24T08:37:19.388Z,4.50
2023-07-24T08:38:19.365Z,5.80
2023-07-24T08:39:19.347Z,7.40
2023-07-24T08:40:19.364Z,5.30
2023-07-24T08:41:19.488Z,5.20
2023-07-24T08:42:19.317Z,5.80
2023-07-24T08:43:19.306Z,5.00
2023-07-24T08:44:19.280Z,4.10
2023-07-24T08:45:19.334Z,4.60
2023-07-24T08:46:19.313Z,3.90
2023-07-24T08:47:19.296Z,4.90
2023-07-24T08:48:19.252Z,3.10
2023-07-24T08:49:19.211Z,6.10
2023-07-24T08:50:19.219Z,3.30
2023-07-24T08:51:19.194Z,3.30
2023-07-24T08:52:34.406Z,3.60
2023-07-24T08:53:20.179Z,4.00
2023-07-24T08:54:19.164Z,3.00
2023-07-24T08:55:19.154Z,3.60
2023-07-24T08:56:19.129Z,4.50
2023-07-24T08:57:19.118Z,5.10
2023-07-24T08:58:19.108Z,3.10
2023-07-24T08:59:19.111Z,5.70
2023-07-24T09:00:19.066Z,3.50
2023-07-24T09:01:19.104Z,5.20
2023-07-24T09:02:19.031Z,3.50
2023-07-24T09:03:19.126Z,3.80
2023-07-24T09:04:19.035Z,3.30
2023-07-24T09:05:19.017Z,3.80
2023-07-24T09:06:18.988Z,4.10
2023-07-24T09:07:18.970Z,5.20
2023-07-24T09:08:19.009Z,4.50
2023-07-24T09:09:18.968Z,3.70
2023-07-24T09:10:19.089Z,4.20
2023-07-24T09:11:18.936Z,4.60
2023-07-24T09:12:18.924Z,7.80
2023-07-24T09:13:18.916Z,7.70
2023-07-24T09:14:20.616Z,6.20
2023-07-24T09:15:18.886Z,6.00
2023-07-24T09:16:18.855Z,6.10
2023-07-24T09:17:18.850Z,5.30
2023-07-24T09:18:19.019Z,5.90
2023-07-24T09:19:26.649Z,10.30
2023-07-24T09:20:32.224Z,7.00
2023-07-24T09:21:21.784Z,10.60
2023-07-24T09:22:19.513Z,6.60
2023-07-24T09:23:21.862Z,6.70
2023-07-24T09:24:18.762Z,7.20
2023-07-24T09:25:18.746Z,7.70
2023-07-24T09:26:18.715Z,7.70
2023-07-24T09:27:18.715Z,8.20
2023-07-24T09:28:18.684Z,7.40
2023-07-24T09:29:18.700Z,4.80
2023-07-24T09:30:18.714Z,7.80
2023-07-24T09:31:18.650Z,9.40
2023-07-24T09:32:18.666Z,6.00
2023-07-24T09:33:18.631Z,5.50
2023-07-24T09:34:18.609Z,6.10
2023-07-24T09:35:18.605Z,5.60
2023-07-24T09:36:18.623Z,5.00
2023-07-24T09:37:18.592Z,7.10
2023-07-24T09:38:18.545Z,8.20
2023-07-24T09:39:18.539Z,8.90
2023-07-24T09:40:18.536Z,8.10
2023-07-24T09:42:18.511Z,8.10
2023-07-24T09:43:36.285Z,9.40
2023-07-24T09:44:19.472Z,6.80
2023-07-24T09:45:18.482Z,7.80
2023-07-24T09:46:18.522Z,7.20
2023-07-24T09:48:40.594Z,5.80
2023-07-24T09:49:19.498Z,6.10
2023-07-24T09:50:18.423Z,7.90
2023-07-24T09:51:18.383Z,8.20
2023-07-24T09:52:18.393Z,8.10
2023-07-24T09:53:18.351Z,4.80
2023-07-24T09:54:18.365Z,5.00
2023-07-24T09:55:18.351Z,7.70
2023-07-24T09:56:18.338Z,6.50
2023-07-24T09:57:22.365Z,8.10
2023-07-24T09:58:18.305Z,5.20
2023-07-24T09:59:18.280Z,6.30
2023-07-24T10:00:18.381Z,5.60
2023-07-24T10:01:18.256Z,5.80
2023-07-24T10:02:18.269Z,7.70
2023-07-24T10:03:18.220Z,6.40
2023-07-24T10:04:18.266Z,6.60
2023-07-24T10:05:18.223Z,8.30
2023-07-24T10:06:18.175Z,5.00
2023-07-24T10:07:18.169Z,6.60
2023-07-24T10:08:18.146Z,7.30
2023-07-24T10:09:18.155Z,6.20
2023-07-24T10:10:18.136Z,4.40
2023-07-24T10:11:18.110Z,4.30
2023-07-24T10:12:18.097Z,7.40
2023-07-24T10:13:18.096Z,6.70
2023-07-24T10:14:18.087Z,5.80
2023-07-24T10:15:18.058Z,5.60
2023-07-24T10:16:18.054Z,8.80
2023-07-24T10:17:20.408Z,6.80
2023-07-24T10:18:18.021Z,7.40
2023-07-24T10:19:18.053Z,7.50
2023-07-24T10:20:17.990Z,4.80
2023-07-24T10:21:17.972Z,8.80
2023-07-24T10:22:17.964Z,4.70
2023-07-24T10:23:17.982Z,5.50
2023-07-24T10:24:31.449Z,7.70
2023-07-24T10:25:19.049Z,5.20
2023-07-24T10:26:17.920Z,6.00
2023-07-24T10:27:17.891Z,4.30
2023-07-24T10:28:17.940Z,6.60
2023-07-24T10:29:17.862Z,5.50
2023-07-24T10:30:33.650Z,7.80
2023-07-24T10:31:19.036Z,4.70
2023-07-24T10:32:18.048Z,8.90
2023-07-24T10:33:17.920Z,4.80
2023-07-24T10:34:17.792Z,4.50
2023-07-24T10:35:17.786Z,3.80
2023-07-24T10:36:17.765Z,5.60
2023-07-24T10:37:17.789Z,6.10
2023-07-24T10:38:17.737Z,4.10
2023-07-24T10:39:17.732Z,7.30
2023-07-24T10:40:17.705Z,6.00
2023-07-24T10:41:17.701Z,5.50
2023-07-24T10:42:17.696Z,6.00
2023-07-24T10:43:17.666Z,4.00
2023-07-24T10:44:17.659Z,6.80
2023-07-24T10:45:17.645Z,3.80
2023-07-24T10:46:17.728Z,8.80
2023-07-24T10:47:17.629Z,7.70
2023-07-24T10:48:17.602Z,4.20
2023-07-24T10:49:17.655Z,5.60
2023-07-24T10:50:17.573Z,4.40
2023-07-24T10:51:17.633Z,7.00
2023-07-24T10:52:17.548Z,6.20
2023-07-24T10:53:17.540Z,5.80
2023-07-24T10:55:27.340Z,4.90
2023-07-24T10:56:27.332Z,5.30
2023-07-24T10:57:27.282Z,3.60
2023-07-24T10:58:29.988Z,4.60
2023-07-24T10:59:27.284Z,3.20
2023-07-24T11:00:27.291Z,4.40
2023-07-24T11:01:27.337Z,3.00
2023-07-24T11:02:27.261Z,3.20
2023-07-24T11:03:27.223Z,2.90
2023-07-24T11:04:27.218Z,4.00
2023-07-24T11:05:27.276Z,3.30
2023-07-24T11:06:27.183Z,2.90
2023-07-24T11:07:27.190Z,3.50
2023-07-24T11:08:27.185Z,4.10
2023-07-24T11:09:27.138Z,3.40
2023-07-24T11:10:27.166Z,4.40
2023-07-24T11:11:27.100Z,2.90
2023-07-24T11:12:27.105Z,3.80
2023-07-24T11:13:27.094Z,3.00
2023-07-24T11:14:27.111Z,3.20
2023-07-24T11:15:27.078Z,3.90
2023-07-24T11:16:27.049Z,3.10
2023-07-24T11:17:27.097Z,3.90
2023-07-24T11:18:31.701Z,4.90
2023-07-24T11:19:28.225Z,3.70
2023-07-24T11:20:27.019Z,2.90
2023-07-24T11:21:27.077Z,3.70
2023-07-24T11:22:26.976Z,3.20
2023-07-24T11:23:26.928Z,4.10
2023-07-24T11:24:27.009Z,3.10
2023-07-24T11:25:26.936Z,7.80
2023-07-24T11:26:27.009Z,39.70
2023-07-24T11:27:26.884Z,98.10
2023-07-24T11:28:26.923Z,137.90
2023-07-24T11:29:26.916Z,125.50
2023-07-24T11:30:26.852Z,39.90
2023-07-24T11:31:26.968Z,135.30
2023-07-24T11:32:26.940Z,191.00
2023-07-24T11:33:26.813Z,91.00
2023-07-24T11:34:26.793Z,126.80
2023-07-24T11:35:26.792Z,87.10
2023-07-24T11:36:26.836Z,203.90
2023-07-24T11:37:26.755Z,86.90
2023-07-24T11:38:26.757Z,86.20
2023-07-24T11:39:26.747Z,84.90
2023-07-24T11:40:26.718Z,95.20
2023-07-24T11:41:26.718Z,76.00
2023-07-24T11:42:26.699Z,22.50
2023-07-24T11:43:26.700Z,23.20
2023-07-24T11:44:26.666Z,32.90
2023-07-24T11:45:26.636Z,9.40
2023-07-24T11:46:26.791Z,10.90
2023-07-24T11:47:26.647Z,15.10
2023-07-24T11:48:26.602Z,27.00
2023-07-24T11:49:26.587Z,8.20
2023-07-24T11:50:26.580Z,9.80
2023-07-24T11:51:26.632Z,9.10
2023-07-24T11:52:26.570Z,8.20
2023-07-24T11:53:26.576Z,5.60
2023-07-24T11:54:26.519Z,11.60
2023-07-24T11:55:26.497Z,7.80
2023-07-24T11:56:26.516Z,7.40
2023-07-24T11:57:26.494Z,5.80
2023-07-24T11:58:26.467Z,8.80
2023-07-24T11:59:26.463Z,10.20
2023-07-24T12:00:26.442Z,7.20
2023-07-24T12:01:26.460Z,9.20
2023-07-24T12:02:26.478Z,4.20
2023-07-24T12:03:26.565Z,6.10
2023-07-24T12:04:26.509Z,8.30
2023-07-24T12:05:26.370Z,6.70
2023-07-24T12:06:26.401Z,9.80
2023-07-24T12:07:26.350Z,3.50
2023-07-24T12:08:26.338Z,6.10
2023-07-24T12:09:26.325Z,4.30
2023-07-24T12:10:26.334Z,6.00
2023-07-24T12:11:26.334Z,2.70
2023-07-24T12:12:26.281Z,4.50
2023-07-24T12:13:26.262Z,4.30
2023-07-24T12:14:26.264Z,4.60
2023-07-24T12:15:26.305Z,2.50
2023-07-24T12:16:26.323Z,3.80
2023-07-24T12:17:26.246Z,6.10
2023-07-24T12:18:26.247Z,4.90
2023-07-24T12:19:26.196Z,4.20
2023-07-24T12:20:26.191Z,6.30
2023-07-24T12:21:26.236Z,4.10
2023-07-24T12:22:26.499Z,7.20
2023-07-24T12:23:26.124Z,6.40
2023-07-24T12:24:26.192Z,2.70
2023-07-24T12:25:26.132Z,2.70
2023-07-24T12:26:26.106Z,2.90
2023-07-24T12:27:26.083Z,4.40
2023-07-24T12:28:26.081Z,2.50
2023-07-24T12:29:26.066Z,4.20
2023-07-24T12:30:26.037Z,4.60
2023-07-24T12:31:26.111Z,7.40
2023-07-24T12:32:26.044Z,3.70
2023-07-24T12:33:26.007Z,6.20
2023-07-24T12:34:26.005Z,2.60
2023-07-24T12:35:25.980Z,5.30
2023-07-24T12:36:25.968Z,11.00
2023-07-24T12:37:25.952Z,4.90
2023-07-24T12:38:25.959Z,9.00
2023-07-24T12:39:25.930Z,3.70
2023-07-24T12:40:25.911Z,4.70
2023-07-24T12:41:25.888Z,4.10
2023-07-24T12:42:25.888Z,5.80
2023-07-24T12:43:25.871Z,1.50
2023-07-24T12:44:25.918Z,2.40
2023-07-24T12:45:25.839Z,2.60
2023-07-24T12:46:25.902Z,3.20
2023-07-24T12:47:25.981Z,2.40
2023-07-24T12:48:25.818Z,9.70
2023-07-24T12:49:25.785Z,6.30
2023-07-24T12:50:25.803Z,1.40
2023-07-24T12:51:25.802Z,3.40
2023-07-24T12:52:25.845Z,28.60
2023-07-24T12:53:29.026Z,1.40
2023-07-24T12:54:50.612Z,2.40
2023-07-24T12:55:26.712Z,2.30
2023-07-24T12:56:25.689Z,4.90
2023-07-24T12:57:25.782Z,1.80
2023-07-24T12:58:25.677Z,3.90
2023-07-24T12:59:25.653Z,3.30
2023-07-24T13:00:25.660Z,5.00
2023-07-24T13:01:25.639Z,6.30
2023-07-24T13:02:25.637Z,1.60
2023-07-24T13:03:25.676Z,2.00
2023-07-24T13:04:25.622Z,2.70
2023-07-24T13:05:25.579Z,1.70
2023-07-24T13:06:25.574Z,3.80
2023-07-24T13:07:25.597Z,2.30
2023-07-24T13:08:25.541Z,5.00